Whale Point, California Weather observations

Data are for observation ending at time listed.
 Day   Time    Ave.   Ave.  Ave.  Vector   Max.   Stn.    Total    Solar   Ave.  
  of    of     Air    Rel.  Wind   Wind    Wind   Baro.  Precip.   Rad.    Soil  
Year   Day     Temp.  Hum.  Speed  Dir.    Gust   Pres.                    Temp. 
2016   (PST)    F      %     mph   deg.    mph     mb.     in.     W/m2     F   
------------------------------------------------------------------------------
 118   17:40   51.4    73   16.1     6     30.3   991.2    0.00     223    65.7
 118   17:50   51.2    73   13.4     6     23.2   991.2    0.00     201    65.7
 118   18:00   51.2    73   14.2    11     23.1   991.2    0.00     158    65.7
 118   18:10   50.9    73   11.7     5     22.0   991.2    0.00     105    65.7
 118   18:20   51.1    72    8.5     4     18.6   991.2    0.00     104    65.7
 118   18:30   51.0    72    6.4    10     15.6   991.2    0.00      54    65.6
 118   18:40   50.6    72    8.3     3     21.3   991.2    0.00      23    65.6
 118   18:50   50.5    72   10.6    10     26.4   991.5    0.00       6    65.6
 118   19:00   50.4    73   12.9     5     21.9   991.2    0.00       2    65.6
 118   19:10   50.2    75   14.1    15     22.8   991.2    0.00       0    65.5
 118   19:20   50.0    76   13.6     6     26.2   991.2    0.00       0    65.5
 118   19:30   49.9    78   14.5     6     27.8   991.5    0.00       0    65.4
 118   19:40   50.0    78   13.2     2     23.8   991.5    0.00       0    65.4
 118   19:50   50.1    77   12.6   359     25.0   991.5    0.00       0    65.3
 118   20:00   50.1    78   10.6   341     19.8   991.5    0.00       0    65.2
 118   20:10   50.1    78   11.8   356     22.8   991.5    0.00       0    65.2
 118   20:20   50.1    79    7.0   336     16.7   991.5    0.00       0    65.1
 118   20:30   50.0    80    9.4   351     17.2   991.5    0.00       0    65.0
 118   20:40   50.0    80    8.7   353     13.9   991.5    0.00       0    64.9
 118   20:50   49.9    81   11.0   357     17.8   991.5    0.00       0    64.8
 118   21:00   49.8    81   11.3   353     22.6   991.2    0.00       0    64.7
 118   21:10   49.8    82   11.3   358     20.2   991.2    0.00       0    64.7
 118   21:20   50.0    81    9.7   356     16.3   991.2    0.00       0    64.6
 118   21:30   49.9    82    9.6   351     16.4   991.2    0.00       0    64.5
 118   21:40   49.9    82    9.8   350     17.7   991.2    0.00       0    64.4
 118   21:50   49.9    82   10.0   354     17.6   991.2    0.00       0    64.3
 118   22:00   50.1    81    9.5   348     16.0   991.2    0.00       0    64.2
 118   22:10   50.1    81    9.3   344     18.1   991.2    0.00       0    64.1
 118   22:20   49.9    81   12.3   351     20.5   990.9    0.00       0    64.0
 118   22:30   49.7    82   11.9   349     21.0   990.9    0.00       0    63.9
 118   22:40   49.7    82    9.6   341     18.2   990.9    0.00       0    63.8
 118   22:50   49.6    83    9.8   349     16.9   990.9    0.00       0    63.8
 118   23:00   49.5    83   10.1   348     18.1   990.9    0.00       0    63.7
 118   23:10   49.4    83    9.2   349     17.5   990.9    0.00       0    63.6
 118   23:20   49.5    82    8.6   346     16.4   990.9    0.00       0    63.5
 118   23:30   49.5    82    9.3   349     17.0   990.9    0.00       0    63.4
 118   23:40   49.6    82    7.9   347     17.6   990.5    0.00       0    63.3
 118   23:50   49.6    81    8.2     0     26.6   990.9    0.00       0    63.2
 119    0:00   49.3    82    5.1    12     12.9   990.5    0.00       0    63.2
 119    0:10   49.1    82    5.2     9     14.2   990.9    0.00       0    63.1
 119    0:20   48.8    82    3.9   356     10.1   990.9    0.00       0    63.0
 119    0:30   48.8    82    2.9    43     11.1   990.9    0.00       0    62.9
 119    0:40   48.7    82    5.1    12     11.3   990.9    0.00       0    62.8
 119    0:50   48.7    82    4.8     6     11.5   990.9    0.00       0    62.7
 119    1:00   48.9    81    2.3     5      6.2   990.9    0.00       0    62.7
 119    1:10   48.7    81    2.1    19      7.2   990.9    0.00       0    62.6
 119    1:20   48.9    81    4.3   354     12.1   990.9    0.00       0    62.5
 119    1:30   49.0    81    6.0    17     13.5   990.9    0.00       0    62.4
 119    1:40   49.0    80    6.1     5     11.2   990.9    0.00       0    62.3
 119    1:50   48.8    82    7.2    11     14.4   990.9    0.00       0    62.3
 119    2:00   48.5    82    3.7     9      9.4   990.9    0.00       0    62.2
 119    2:10   48.0    83    6.9    11     11.6   990.5    0.00       0    62.1
 119    2:20   48.7    82   10.5     4     21.7   990.5    0.00       0    62.0
 119    2:30   48.8    81    8.7    20     16.8   990.5    0.00       0    61.9
 119    2:40   48.6    81    5.0    29      7.7   990.5    0.00       0    61.8
 119    2:50   48.5    81    6.6    21     12.9   990.5    0.00       0    61.8
 119    3:00   48.7    81    6.2    12     10.6   990.5    0.00       0    61.7
 119    3:10   48.4    82    5.9    12     18.0   990.5    0.00       0    61.6
 119    3:20   48.2    83    6.2    18     11.7   990.5    0.00       0    61.6
 119    3:30   48.2    83    7.1    18     15.3   990.5    0.00       0    61.5
 119    3:40   48.2    83    7.5     9     16.8   990.5    0.00       0    61.4
 119    3:50   48.1    83    1.7    59      8.0   990.5    0.00       0    61.3
 119    4:00   48.1    83    6.2    24     12.1   990.5    0.00       0    61.2
 119    4:10   48.0    83    5.0    22     10.4   990.5    0.00       0    61.2
 119    4:20   48.1    83    5.7    31     11.0   990.9    0.00       0    61.1
 119    4:30   47.7    83    5.1    48      7.2   990.9    0.00       0    61.0
 119    4:40   47.1    83    5.2    68      7.7   990.9    0.00       0    61.0
 119    4:50   46.4    84    2.9    59      7.0   990.9    0.00       0    60.9
 119    5:00   46.6    86    2.1    42      5.8   990.9    0.00       0    60.8
 119    5:10   47.5    85    2.1    32      4.4   990.9    0.00       1    60.7
 119    5:20   47.2    84    3.3    71      6.6   990.9    0.00       3    60.7
 119    5:30   46.6    85    2.9    89      5.3   990.9    0.00       7    60.6
 119    5:40   46.9    84    1.8   112      3.5   991.2    0.00      11    60.5
 119    5:50   46.9    84    0.6   136      2.4   991.2    0.00      15    60.5
 119    6:00   46.7    85    1.1    91      2.9   991.2    0.00      20    60.4
 119    6:10   46.6    86    1.2   110      2.9   991.2    0.00      26    60.3
 119    6:20   46.8    86    2.8    79      5.2   991.2    0.00      28    60.2
 119    6:30   47.0    86    1.8   136      4.2   991.5    0.00      31    60.2
 119    6:40   47.3    86    3.1   134      5.2   991.5    0.00      34    60.1
 119    6:50   47.5    87    3.0   129      6.0   991.5    0.00      39    60.1
 119    7:00   47.6    87    2.4   116      5.9   991.5    0.00      41    60.0
 119    7:10   47.8    86    1.0   285      3.6   991.5    0.00     149    59.9
 119    7:20   48.9    86    2.7    80      7.9   991.5    0.00     379    59.8
 119    7:30   50.0    83    1.3   197      4.0   991.9    0.00     425    59.7
 119    7:40   51.2    81    1.9   181      4.5   991.9    0.00     465    59.6
 119    7:50   51.0    81    1.9   176      4.5   991.9    0.00     496    59.6
 119    8:00   51.0    80    2.1   196      4.4   991.9    0.00     531    59.6
 119    8:10   50.6    82    2.6   189      5.6   991.9    0.00     563    59.5
 119    8:20   50.8    81    3.1   190      6.3   991.9    0.00     605    59.5
 119    8:30   51.5    80    3.2   185      5.8   991.9    0.00     639    59.5
 119    8:40   51.9    79    3.9   190      6.6   991.9    0.00     673    59.5
 119    8:50   51.8    79    3.8   185      7.5   992.2    0.00     700    59.5
 119    9:00   51.2    81    3.5   209      6.9   992.2    0.00     727    59.4
 119    9:10   51.8    80    3.0   193      7.1   992.2    0.00     760    59.4
 119    9:20   51.9    79    3.9   213      7.4   992.2    0.00     788    59.4
 119    9:30   51.9    80    3.5   208      6.6   992.2    0.00     816    59.5
 119    9:40   52.5    79    4.3   204      7.4   991.9    0.00     843    59.5
 119    9:50   52.4    78    4.9   203      7.7   992.2    0.00     864    59.5
 119   10:00   52.8    78    4.5   207      8.0   992.2    0.00     887    59.5
 119   10:10   53.4    77    3.8   210      7.3   992.2    0.00     905    59.6
 119   10:20   53.9    76    5.0   203      8.3   992.6    0.00     923    59.6
 119   10:30   54.2    76    3.0   208      7.2   992.6    0.00     943    59.7
 119   10:40   54.0    77    5.4   217      9.2   992.6    0.00     958    59.7
 119   10:50   54.7    76    5.0   253      9.6   992.6    0.00     944    59.8
 119   11:00   53.3    79    5.7   282     13.7   992.6    0.00     909    59.8
 119   11:10   52.9    80    5.6   279     13.5   992.9    0.00     977    59.9
 119   11:20   53.0    80    6.8   267     14.1   992.9    0.00    1015    59.9
 119   11:30   53.2    80    4.3   272     12.8   992.9    0.00     997    60.0
 119   11:40   54.1    79    5.0   302     13.4   992.9    0.00    1020    60.0
 119   11:50   55.1    77    6.6   281     15.7   992.9    0.00    1035    60.1
 119   12:00   54.8    77    6.6   277     14.5   992.6    0.00    1023    60.2
 119   12:10   55.4    76    5.9   294     14.3   992.9    0.00    1030    60.3
 119   12:20   54.0    78    4.3   338     12.3   992.9    0.00    1034    60.4
 119   12:30   53.8    79    7.3    36     22.1   992.9    0.00     995    60.5
 119   12:40   54.1    78    5.5    27     14.2   992.9    0.00    1002    60.7
 119   12:50   54.2    77    8.0   354     19.8   992.9    0.00    1032    60.8
 119   13:00   53.5    78   12.5     0     24.8   992.9    0.00    1010    61.0
 119   13:10   54.5    77    7.1   329     16.9   992.9    0.00     991    61.2
 119   13:20   55.0    76    8.2   340     17.3   992.9    0.00     971    61.4
 119   13:30   55.8    75    6.9   344     16.1   992.6    0.00     964    61.6
 119   13:40   55.5    75    8.4   349     27.2   992.9    0.00     956    61.9
 119   13:50   55.4    75    8.6    10     24.8   992.9    0.00     945    62.1
 119   14:00   54.8    76   11.7   358     24.5   992.9    0.00     928    62.4
 119   14:10   54.6    77   11.5   351     25.5   992.9    0.00     920    62.6
 119   14:20   54.9    76   11.4   351     28.1   992.9    0.00     903    62.9
 119   14:30   54.0    78   14.5   356     29.1   992.9    0.00     861    63.1
 119   14:40   53.9    79   14.0     2     29.5   992.9    0.00     796    63.4
 119   14:50   54.2    78   14.5   356     26.9   992.9    0.00     828    63.6
 119   15:00   54.6    78   10.4   341     23.0   992.9    0.00     717    63.9
 119   15:10   54.3    78   10.9   349     26.5   992.9    0.00     779    64.1
 119   15:20   54.9    77    9.0   339     25.4   992.6    0.00     725    64.4
 119   15:30   55.1    76    9.3   343     20.0   992.6    0.00     693    64.6
 119   15:40   54.6    77   10.3   353     27.1   992.6    0.00     661    64.8
 119   15:50   54.5    77   10.3   351     22.3   992.6    0.00     625    65.0
 119   16:00   54.7    77    9.6   340     21.9   992.6    0.00     590    65.3
 119   16:10   55.4    75    6.6   331     15.7   992.6    0.00     549    65.5
 119   16:20   55.7    74    5.7   316     14.2   992.2    0.00     510    65.6
 119   16:30   55.3    75    8.1   345     19.4   992.2    0.00     472    65.8
 119   16:40   54.8    76    7.1   316     15.9   992.2    0.00     432    66.0
 119   16:50   55.7    74    5.9   292     12.7   992.2    0.00     316    66.2
 119   17:00   55.2    75    6.8   325     18.0   992.2    0.00     341    66.4
 119   17:10   54.9    76    5.5   313     12.6   992.2    0.00     315    66.5
 119   17:20   54.9    76    4.8   324     10.9   992.2    0.00     281    66.7
 119   17:30   55.6    75    3.6   279     10.9   992.2    0.00     244    66.8

Return to Whale Point graphs page.


Western Regional Climate Center,wrcc@dri.edu